CYHZCYYR

Guest
Details From CYHZ - Halifax Intl
To CYYR - Goose Bay
Flight Number -
Tags Decoded
Created
Modified
Stats Distance 521 nm / 965 km
Max Altitude 0 ft / 0 m
Waypoints 2
Social Downloads 0
Likes 0
Share VATSIM

Download

Looking for another format? Having issues loading an existing format? Contact us
Advertisement - Login to hide

Notes

Decoded

Route

CYHZ CYYR

ID Type Via Altitude Latitude Longitude Leg Dist Tot Dist Heading (true) Name
O CYHZ APT - 0 ft / 0 m 44.89362˚ -63.51800˚ - 0 nm - -
O CYYR APT - 0 ft / 0 m 53.33389˚ -60.43639˚ 521 nm 521 nm 12° / 15° -

Altitude Profile

Advertisement - Login to hide

Weather


0- 5 10 15 20 25 30 35+ Temperature / ° C

Clouds and Precipitation
Forecast for 2018-05-27 18:00 UTC. Updated an hour ago

Ground ~20,000 ft ~40,000 ft Winds

CYHZ

Details ICAO CYHZ (YHZ)
Name HALIFAX INTL
Region Canada
Timezone America/Halifax (UTC-3.0)
Stats Elevation 477 ft / 145 m (AMSL)
Location 44.883158° -63.510554°
Runways 2
Magnetic Variation 17.363° W

METAR

CYHZ 271800Z 15013G21KT 130V210 15SM FEW046 FEW280 14/03 A3029 RMK CF1CI2 CF TR SLP263

Decode

TAF

TAF AMD CYHZ 271802Z 2718/2818 16010G20KT P6SM FEW040 FM280000 15008KT P6SM FEW200 FM280600 14008KT P6SM BKN004 PROB30 2806/2812 1/2SM FG VV002 FM281200 14012KT P6SM SCT006 BKN012 FM281500 15015KT P6SM BKN020 BKN100 RMK NXT FCST BY 272100Z

Decode

Departure Runways

ID Width Length Bearing (true) Bearing (mag) Surface Threshold Offset Overrun Length
05 200 ft / 61 m 8,608 ft / 2,624 m 34.95° 52.31° Asphalt 0 ft / 0 m 0 ft / 0 m
14 200 ft / 61 m 7,571 ft / 2,308 m 125.19° 142.55° Asphalt 0 ft / 0 m 0 ft / 0 m
23 200 ft / 61 m 8,608 ft / 2,624 m 214.97° 232.33° Asphalt 0 ft / 0 m 0 ft / 0 m
32 200 ft / 61 m 7,571 ft / 2,308 m 305.21° 322.57° Asphalt 0 ft / 0 m 0 ft / 0 m

CYYR

Details ICAO CYYR (YYR)
Name Goose Bay
Region Canada
Timezone America/Goose_Bay (UTC-3.0)
Stats Elevation 160 ft / 49 m (AMSL)
Location 53.318820° -60.423890°
Runways 2
Magnetic Variation 20.866° W

METAR

CYYR 271800Z 04006KT 15SM FEW060 FEW270 09/M05 A3018 RMK CF1CI2 SLP224

Decode

TAF

TAF CYYR 271737Z 2718/2818 VRB03KT P6SM FEW060 FM281500 23012G22KT P6SM SCT120 BKN180 BECMG 2815/2817 22018G28KT RMK NXT FCST BY 280000Z

Decode

Destination Runways

ID Width Length Bearing (true) Bearing (mag) Surface Threshold Offset Overrun Length
08 209 ft / 64 m 11,055 ft / 3,369 m 54.70° 75.57° Asphalt 0 ft / 0 m 1,000 ft / 305 m
16 200 ft / 61 m 9,515 ft / 2,900 m 132.96° 153.83° Asphalt 0 ft / 0 m 0 ft / 0 m
26 209 ft / 64 m 11,055 ft / 3,369 m 234.73° 255.60° Asphalt 0 ft / 0 m 1,000 ft / 305 m
34 200 ft / 61 m 9,515 ft / 2,900 m 312.99° 333.86° Asphalt 0 ft / 0 m 500 ft / 152 m

Popular Alternatives